Time;durP1;ratioP1;P1;durP2;ratioP2;P2;SDS_P1;SDS_P2;PMS_P1;PMS_P2;Temp;Humidity;BMP_temperature;BMP_pressure;BME280_temperature;BME280_humidity;BME280_pressure;Samples;Min_cycle;Max_cycle;Signal;HPM_P1;HPM_P2
2023/04/04 06:44:10;;;;;;;;;2.25;2.25;;;;;18.21;43.51;102253.63;5056582;27;45818;-71
2023/04/04 06:46:36;;;;;;;;;3.00;3.00;;;;;18.81;44.22;102257.03;5043786;28;45786;-69
2023/04/04 06:49:01;;;;;;;;;4.00;4.00;;;;;19.62;44.37;102244.47;5046331;28;45518;-70
2023/04/04 06:51:27;;;;;;;;;2.50;2.50;;;;;20.55;44.81;102257.81;5043444;28;45873;-71
2023/04/04 06:53:55;;;;;;;;;2.75;2.75;;;;;21.42;43.87;102254.13;5045029;28;46343;-72
2023/04/04 06:56:21;;;;;;;;;2.50;2.50;;;;;22.15;43.86;102257.63;5043161;28;45761;-72
2023/04/04 06:58:47;;;;;;;;;4.50;3.00;;;;;22.78;43.02;102262.50;5049725;28;45451;-73
2023/04/04 07:01:12;;;;;;;;;3.33;3.00;;;;;23.29;43.19;102266.38;5048773;28;45489;-71
2023/04/04 07:03:37;;;;;;;;;4.00;3.00;;;;;23.77;42.63;102277.72;5048824;28;48525;-70
2023/04/04 07:06:03;;;;;;;;;1.33;1.33;;;;;24.13;41.83;102265.66;5048549;28;45355;-71
2023/04/04 07:08:29;;;;;;;;;3.33;3.00;;;;;24.52;41.46;102276.66;5045944;28;46052;-72
2023/04/04 07:10:55;;;;;;;;;2.33;1.33;;;;;24.79;41.33;102271.59;5050133;28;45426;-71
2023/04/04 07:13:20;;;;;;;;;2.00;2.00;;;;;25.08;40.99;102282.53;5064074;27;47106;-71
2023/04/04 07:15:49;;;;;;;;;2.33;2.33;;;;;25.29;40.52;102270.66;5049232;28;45408;-73
2023/04/04 07:18:15;;;;;;;;;3.00;3.00;;;;;25.49;40.46;102273.34;5045048;28;45340;-71
2023/04/04 07:20:40;;;;;;;;;4.00;3.00;;;;;25.64;40.17;102281.94;5048392;28;45420;-71
2023/04/04 07:23:06;;;;;;;;;3.33;3.33;;;;;25.82;39.80;102279.34;5048069;28;46188;-71
2023/04/04 07:25:31;;;;;;;;;2.67;2.33;;;;;25.97;39.55;102281.59;5048756;28;45446;-72
2023/04/04 07:27:56;;;;;;;;;2.00;2.00;;;;;26.07;39.38;102267.97;5048353;28;45396;-73
2023/04/04 07:30:26;;;;;;;;;3.33;1.33;;;;;26.20;39.29;102273.06;5047908;28;45413;-73
2023/04/04 07:32:58;;;;;;;;;4.67;3.33;;;;;26.28;38.60;102276.75;5045174;28;45856;-84
2023/04/04 07:35:23;;;;;;;;;7.67;4.00;;;;;26.31;38.25;102273.75;5041527;28;45778;-82
2023/04/04 07:37:49;;;;;;;;;3.33;2.00;;;;;26.34;38.56;102274.44;5044956;28;46037;-78
2023/04/04 07:40:15;;;;;;;;;3.00;3.00;;;;;26.41;37.68;102272.84;5046002;28;45562;-75
2023/04/04 07:42:50;;;;;;;;;2.00;2.00;;;;;26.47;37.89;102264.06;5044354;28;45507;-77
2023/04/04 07:45:17;;;;;;;;;2.00;2.00;;;;;26.48;37.95;102263.06;5045873;28;45567;-77
2023/04/04 07:47:45;;;;;;;;;2.00;2.00;;;;;26.57;37.98;102273.03;5048296;28;45591;-77
2023/04/04 07:50:12;;;;;;;;;3.00;3.00;;;;;26.63;37.07;102271.56;5047585;28;45418;-79
2023/04/04 07:52:38;;;;;;;;;2.67;2.67;;;;;26.68;37.64;102265.66;5046156;28;47051;-80
2023/04/04 07:55:06;;;;;;;;;2.00;2.00;;;;;26.70;36.97;102272.66;5038187;28;45437;-78
2023/04/04 07:57:32;;;;;;;;;2.67;2.67;;;;;26.74;36.99;102281.41;5028340;28;45543;-77
2023/04/04 07:59:58;;;;;;;;;4.00;4.00;;;;;26.78;37.00;102266.47;5033065;28;45658;-77
2023/04/04 08:02:23;;;;;;;;;2.00;2.00;;;;;26.81;36.94;102271.59;5029779;28;46058;-77
2023/04/04 08:04:49;;;;;;;;;3.67;3.00;;;;;26.82;36.45;102262.41;5029452;28;45551;-77
2023/04/04 08:07:14;;;;;;;;;2.00;2.00;;;;;26.86;36.24;102268.44;5034700;28;45368;-76
2023/04/04 08:09:40;;;;;;;;;2.00;2.00;;;;;26.88;36.35;102262.78;5035518;28;45637;-79
2023/04/04 08:12:06;;;;;;;;;4.00;3.00;;;;;26.93;36.28;102265.94;5027280;28;55450;-79
2023/04/04 08:14:32;;;;;;;;;0.00;0.00;;;;;27.00;36.50;102266.19;5036937;28;45574;-78
2023/04/04 08:16:57;;;;;;;;;3.00;3.00;;;;;26.98;36.32;102250.00;5036065;28;45573;-79
2023/04/04 08:19:23;;;;;;;;;3.00;3.00;;;;;27.03;36.48;102253.13;5035412;28;45537;-79
2023/04/04 08:21:48;;;;;;;;;2.67;2.67;;;;;27.09;36.20;102252.50;5034395;28;45449;-81
2023/04/04 08:24:14;;;;;;;;;2.00;2.00;;;;;27.12;35.51;102262.22;5032870;28;45548;-76
2023/04/04 08:26:39;;;;;;;;;2.00;2.00;;;;;27.14;36.10;102259.34;5034505;28;45754;-76
2023/04/04 08:29:04;;;;;;;;;2.67;2.67;;;;;27.14;36.13;102254.72;5033984;28;45811;-76
2023/04/04 08:31:30;;;;;;;;;2.00;2.00;;;;;27.15;35.66;102252.88;5035249;28;54422;-76
2023/04/04 08:33:55;;;;;;;;;1.00;1.00;;;;;27.19;35.59;102265.19;5033702;28;47111;-76
2023/04/04 08:36:21;;;;;;;;;3.00;2.00;;;;;27.11;35.55;102249.63;5034069;28;46142;-77
2023/04/04 08:38:47;;;;;;;;;5.00;3.33;;;;;27.22;35.41;102256.69;5033097;28;45504;-76
2023/04/04 08:41:14;;;;;;;;;1.00;1.00;;;;;27.20;35.08;102259.56;5034668;28;46012;-84
2023/04/04 08:43:45;;;;;;;;;3.00;1.67;;;;;27.23;34.76;102261.97;5032963;28;45519;-77
2023/04/04 08:46:11;;;;;;;;;4.00;3.00;;;;;27.29;34.64;102262.34;5021830;28;45436;-77
2023/04/04 08:48:40;;;;;;;;;2.00;2.00;;;;;27.32;35.23;102265.66;5034062;28;45361;-78
2023/04/04 08:51:07;;;;;;;;;2.00;2.00;;;;;27.33;34.90;102258.31;5034238;28;46374;-78
2023/04/04 08:53:36;;;;;;;;;3.00;2.00;;;;;27.37;35.16;102259.69;5022015;28;45394;-76
2023/04/04 08:56:01;;;;;;;;;3.67;3.67;;;;;27.38;34.64;102266.03;5035049;28;45590;-81
2023/04/04 08:58:26;;;;;;;;;2.00;2.00;;;;;27.41;34.87;102258.38;5032191;28;46182;-80
2023/04/04 09:00:53;;;;;;;;;1.00;1.00;;;;;27.41;34.08;102268.41;5031454;28;46132;-85
2023/04/04 09:03:31;;;;;;;;;3.00;3.00;;;;;27.41;34.21;102271.13;5033325;28;45871;-78
2023/04/04 09:05:57;;;;;;;;;2.00;1.00;;;;;27.39;34.07;102284.94;5030755;28;45562;-77
2023/04/04 09:08:23;;;;;;;;;2.00;2.00;;;;;27.38;34.45;102283.22;5031650;28;45607;-76
2023/04/04 09:10:50;;;;;;;;;3.00;3.00;;;;;27.40;33.93;102277.63;5033488;28;46325;-76
2023/04/04 09:13:16;;;;;;;;;2.00;2.00;;;;;27.43;33.85;102277.31;5034181;28;45674;-76
2023/04/04 09:15:46;;;;;;;;;4.33;3.00;;;;;27.43;33.76;102267.25;5033260;28;45469;-76
2023/04/04 09:18:11;;;;;;;;;2.67;2.33;;;;;27.42;34.24;102270.97;5034475;28;45400;-76
2023/04/04 09:20:39;;;;;;;;;3.33;3.00;;;;;27.45;33.65;102280.72;5031591;28;45524;-81
2023/04/04 09:23:08;;;;;;;;;1.67;1.67;;;;;27.46;33.61;102282.44;5033660;28;45490;-83
2023/04/04 09:25:35;;;;;;;;;2.67;2.67;;;;;27.45;33.63;102278.84;5034365;28;45333;-83
2023/04/04 09:28:03;;;;;;;;;2.33;2.00;;;;;27.44;33.46;102271.69;5047390;28;45442;-77
2023/04/04 09:30:29;;;;;;;;;1.00;1.00;;;;;27.41;33.80;102272.00;5025245;28;46103;-79
2023/04/04 09:32:56;;;;;;;;;2.00;1.67;;;;;27.37;34.22;102270.59;5033369;28;45512;-78
2023/04/04 09:35:21;;;;;;;;;2.67;2.67;;;;;27.42;33.35;102272.88;5034151;28;45428;-82
2023/04/04 09:37:47;;;;;;;;;2.67;2.67;;;;;27.38;33.19;102283.22;5033019;28;45578;-82
2023/04/04 09:40:13;;;;;;;;;3.33;3.00;;;;;27.36;33.26;102267.03;5031648;28;46053;-82
2023/04/04 09:42:38;;;;;;;;;5.00;2.00;;;;;27.40;33.38;102277.63;5026915;28;45688;-78
2023/04/04 09:45:05;;;;;;;;;7.67;3.00;;;;;27.36;33.80;102267.03;5029477;28;45638;-79
2023/04/04 09:47:32;;;;;;;;;3.00;3.00;;;;;27.40;33.04;102266.72;5029803;28;45561;-77
2023/04/04 09:50:01;;;;;;;;;2.33;1.67;;;;;27.41;33.69;102265.69;5031739;28;47125;-77
2023/04/04 09:52:26;;;;;;;;;4.00;2.67;;;;;27.46;32.97;102274.28;5029952;28;45397;-76
2023/04/04 09:54:59;;;;;;;;;1.00;1.00;;;;;27.46;33.62;102266.94;5031271;28;45692;-76
2023/04/04 09:57:36;;;;;;;;;2.00;2.00;;;;;27.47;33.11;102265.91;5032226;28;45478;-77
2023/04/04 10:00:07;;;;;;;;;1.00;1.00;;;;;27.49;32.66;102261.16;5029362;28;46811;-77
2023/04/04 10:02:35;;;;;;;;;2.00;2.00;;;;;27.51;33.48;102269.19;5028071;28;45687;-78
2023/04/04 10:05:07;;;;;;;;;1.67;1.00;;;;;27.53;33.17;102261.69;5030110;28;45967;-80
2023/04/04 10:07:36;;;;;;;;;2.00;1.00;;;;;27.46;32.54;102255.19;5031069;28;46216;-80
2023/04/04 10:10:05;;;;;;;;;2.00;2.00;;;;;27.56;33.17;102258.66;5027803;28;46086;-79
2023/04/04 10:12:32;;;;;;;;;2.00;2.00;;;;;27.57;32.55;102260.38;5029451;28;45475;-80
2023/04/04 10:14:58;;;;;;;;;2.00;2.00;;;;;27.60;32.58;102272.88;5032119;28;45435;-82
2023/04/04 10:17:29;;;;;;;;;1.00;1.00;;;;;27.60;32.46;102262.81;5032923;28;45623;-86
2023/04/04 10:19:56;;;;;;;;;1.33;1.00;;;;;27.63;32.40;102261.66;5023509;28;45430;-87
2023/04/04 10:22:22;;;;;;;;;2.67;2.00;;;;;27.65;32.39;102259.59;5030648;28;45501;-83
2023/04/04 10:24:47;;;;;;;;;2.00;2.00;;;;;27.64;32.38;102259.75;5033121;28;45735;-85
2023/04/04 10:27:13;;;;;;;;;2.67;2.33;;;;;27.66;32.31;102247.66;5027477;28;45766;-87
2023/04/04 10:29:38;;;;;;;;;2.00;2.00;;;;;27.63;32.91;102250.75;5028266;28;45907;-88
2023/04/04 10:32:05;;;;;;;;;2.00;2.00;;;;;27.69;32.22;102262.84;5031324;28;45774;-79
2023/04/04 10:34:59;;;;;;;;;3.00;2.00;;;;;27.68;32.63;102248.38;5030420;28;45479;-81
2023/04/04 10:37:26;;;;;;;;;2.00;2.00;;;;;27.71;32.59;102242.59;5027869;28;45763;-80
2023/04/04 10:40:03;;;;;;;;;2.33;1.67;;;;;27.72;32.69;102244.28;5032052;28;45606;-80
2023/04/04 10:42:37;;;;;;;;;2.67;2.33;;;;;27.72;32.46;102247.03;5031465;28;45337;-80
2023/04/04 10:45:04;;;;;;;;;2.00;1.67;;;;;27.73;31.86;102248.75;5025150;28;45524;-81
2023/04/04 10:47:31;;;;;;;;;2.33;2.33;;;;;27.73;31.87;102246.03;5031212;28;45484;-81
2023/04/04 10:49:56;;;;;;;;;2.00;2.00;;;;;27.69;31.89;102232.84;5031557;28;45740;-82
2023/04/04 10:52:26;;;;;;;;;1.00;1.00;;;;;27.70;32.31;102240.88;5032901;28;45854;-81
2023/04/04 10:54:59;;;;;;;;;2.00;2.00;;;;;27.69;31.94;102241.91;5032889;28;45496;-81
2023/04/04 10:57:27;;;;;;;;;1.00;1.00;;;;;27.64;31.80;102247.00;5033004;28;45495;-82
2023/04/04 10:59:55;;;;;;;;;1.67;1.67;;;;;27.68;32.28;102259.28;5033815;28;45940;-83
2023/04/04 11:02:43;;;;;;;;;3.00;2.33;;;;;27.67;31.59;102254.84;5031428;28;45387;-83
2023/04/04 11:05:50;;;;;;;;;3.00;3.00;;;;;27.63;31.92;102239.81;5046730;28;45499;-82
2023/04/04 11:08:23;;;;;;;;;4.33;4.33;;;;;27.57;30.93;102244.00;5027336;28;45651;-82
2023/04/04 11:10:51;;;;;;;;;4.00;4.00;;;;;27.49;31.16;102239.34;5031131;28;45807;-83
2023/04/04 11:13:17;;;;;;;;;5.00;5.00;;;;;27.43;30.65;102237.25;5031154;28;45852;-83
2023/04/04 11:15:55;;;;;;;;;5.00;5.00;;;;;27.33;30.61;102229.19;5021941;28;45341;-83
2023/04/04 11:18:22;;;;;;;;;7.67;5.67;;;;;27.29;30.07;102233.22;5021368;28;45517;-91
2023/04/04 11:20:47;;;;;;;;;5.33;5.33;;;;;27.22;30.24;102227.56;5030226;28;45704;-84
2023/04/04 11:23:21;;;;;;;;;5.33;5.33;;;;;27.13;29.95;102230.38;5028354;28;45404;-83
2023/04/04 11:25:54;;;;;;;;;8.00;5.00;;;;;27.05;29.57;102225.72;5047886;28;45458;-83
2023/04/04 11:28:35;;;;;;;;;4.00;4.00;;;;;27.01;29.40;102214.25;5030785;28;45567;-83
2023/04/04 11:31:39;;;;;;;;;3.33;3.33;;;;;27.01;29.42;102218.88;5031353;28;46061;-83
2023/04/04 11:34:15;;;;;;;;;3.00;3.00;;;;;26.99;29.89;102209.97;5046689;28;45460;-83
2023/04/04 11:36:41;;;;;;;;;5.33;3.00;;;;;27.06;29.21;102208.34;5035906;28;45424;-82
2023/04/04 11:39:32;;;;;;;;;3.00;3.00;;;;;27.08;29.31;102211.78;5033903;28;45646;-83
2023/04/04 11:42:06;;;;;;;;;3.67;3.00;;;;;27.13;30.12;102208.59;5035746;28;46558;-83
2023/04/04 11:44:38;;;;;;;;;3.00;1.00;;;;;27.15;29.83;102206.56;5030119;28;45958;-84
2023/04/04 11:47:08;;;;;;;;;4.00;2.33;;;;;27.19;29.65;102210.69;5034861;28;45462;-82
2023/04/04 11:49:39;;;;;;;;;5.67;3.00;;;;;27.22;29.91;102207.63;5025741;28;45525;-84
2023/04/04 11:52:07;;;;;;;;;3.67;3.67;;;;;27.25;29.72;102203.75;5033113;28;45985;-79
2023/04/04 11:54:33;;;;;;;;;4.33;3.33;;;;;27.22;30.00;102200.31;5036082;28;45806;-77
2023/04/04 11:56:59;;;;;;;;;3.00;3.00;;;;;27.31;29.41;102203.97;5032434;28;45731;-76
2023/04/04 11:59:24;;;;;;;;;3.00;3.00;;;;;27.34;29.46;102200.06;5036621;28;45793;-73
2023/04/04 12:01:50;;;;;;;;;2.00;2.00;;;;;27.32;29.76;102196.63;5034378;28;45772;-73
2023/04/04 12:04:18;;;;;;;;;4.33;3.00;;;;;27.35;29.54;102196.31;5035414;28;45411;-73
2023/04/04 12:06:48;;;;;;;;;4.00;2.33;;;;;27.40;29.52;102193.09;5035351;28;46566;-73
2023/04/04 12:09:16;;;;;;;;;3.00;3.00;;;;;27.45;30.16;102193.47;5034980;28;45726;-73
2023/04/04 12:11:41;;;;;;;;;3.67;3.33;;;;;27.51;29.91;102191.97;5035356;28;45459;-73
2023/04/04 12:14:21;;;;;;;;;2.00;2.00;;;;;27.55;30.10;102179.75;5028332;28;45520;-73
2023/04/04 12:16:47;;;;;;;;;3.33;3.33;;;;;27.60;29.63;102182.88;5044843;28;46032;-73
2023/04/04 12:19:13;;;;;;;;;3.00;3.00;;;;;27.63;29.46;102174.38;5034663;28;45900;-77
2023/04/04 12:21:39;;;;;;;;;3.33;3.00;;;;;27.68;29.99;102173.88;5034835;28;46222;-75
2023/04/04 12:24:07;;;;;;;;;2.00;2.00;;;;;27.69;29.77;102171.00;5034557;28;45420;-75
2023/04/04 12:26:33;;;;;;;;;3.00;3.00;;;;;27.71;29.98;102174.41;5032087;28;45681;-83
2023/04/04 12:28:59;;;;;;;;;3.33;3.00;;;;;27.74;30.00;102174.09;5048701;28;45330;-79
2023/04/04 12:31:26;;;;;;;;;4.00;3.00;;;;;27.75;29.48;102173.06;5030896;28;46132;-78
2023/04/04 12:33:52;;;;;;;;;3.00;3.00;;;;;27.75;29.82;102170.34;5034915;28;45538;-79
2023/04/04 12:36:18;;;;;;;;;3.67;3.67;;;;;27.79;29.78;102159.09;5033968;28;45387;-78
2023/04/04 12:39:05;;;;;;;;;2.67;2.00;;;;;27.84;30.02;102170.38;5034329;28;45502;-75
2023/04/04 12:41:32;;;;;;;;;2.00;2.00;;;;;27.84;29.85;102159.47;5049510;28;48285;-78
2023/04/04 12:44:02;;;;;;;;;3.00;3.00;;;;;27.90;30.03;102166.97;5032980;28;45611;-83
2023/04/04 12:46:38;;;;;;;;;3.00;3.00;;;;;27.89;29.94;102165.28;5025075;28;45527;-85
2023/04/04 12:49:10;;;;;;;;;2.00;2.00;;;;;27.93;29.33;102168.53;5033220;28;45649;-85
2023/04/04 12:51:36;;;;;;;;;3.00;2.00;;;;;27.94;29.46;102171.09;5032516;28;46148;-79
2023/04/04 12:54:04;;;;;;;;;2.67;2.67;;;;;27.95;29.74;102161.06;5034158;28;45440;-82
2023/04/04 12:56:30;;;;;;;;;2.00;2.00;;;;;27.95;29.58;102159.16;5031353;28;45647;-82
2023/04/04 12:59:03;;;;;;;;;3.00;3.00;;;;;27.90;29.24;102147.88;5033240;28;45608;-79
2023/04/04 13:01:32;;;;;;;;;3.00;3.00;;;;;27.97;29.04;102156.28;5034605;28;45430;-80
2023/04/04 13:04:07;;;;;;;;;2.00;2.00;;;;;27.98;29.15;102155.25;5032523;28;45484;-82
2023/04/04 13:06:32;;;;;;;;;1.00;1.00;;;;;27.97;29.18;102148.94;5028446;28;45381;-78
2023/04/04 13:08:58;;;;;;;;;7.00;5.67;;;;;27.86;29.84;102127.41;5027985;28;45614;-82
2023/04/04 13:11:24;;;;;;;;;5.33;5.33;;;;;27.99;29.68;102138.72;5064433;28;48040;-78
2023/04/04 13:14:02;;;;;;;;;4.33;3.00;;;;;28.02;29.07;102127.47;5030175;28;45618;-77
2023/04/04 13:16:38;;;;;;;;;3.33;3.33;;;;;28.03;29.80;102125.59;5034451;28;45495;-76
2023/04/04 13:19:03;;;;;;;;;2.00;2.00;;;;;28.03;29.64;102122.84;5033732;28;45630;-77
2023/04/04 13:21:29;;;;;;;;;1.00;1.00;;;;;28.03;28.90;102111.94;5033305;28;46326;-76
2023/04/04 13:23:55;;;;;;;;;2.00;2.00;;;;;28.05;29.70;102117.25;5033430;28;45442;-75
2023/04/04 13:26:20;;;;;;;;;1.33;1.33;;;;;28.04;28.84;102112.81;5031920;28;45905;-75
2023/04/04 13:28:46;;;;;;;;;3.00;3.00;;;;;28.07;28.97;102121.50;5034358;28;45746;-76
2023/04/04 13:31:12;;;;;;;;;2.00;2.00;;;;;28.07;28.98;102110.59;5033508;28;46719;-76
2023/04/04 13:33:38;;;;;;;;;3.00;2.00;;;;;28.07;28.93;102110.59;5024295;28;46051;-76
2023/04/04 13:36:04;;;;;;;;;3.00;3.00;;;;;28.09;29.22;102113.16;5026321;28;45807;-84
2023/04/04 13:38:30;;;;;;;;;2.67;2.67;;;;;28.10;29.30;102109.41;5033347;28;45547;-78
2023/04/04 13:40:59;;;;;;;;;2.33;2.33;;;;;28.10;28.82;102102.09;5030990;28;45488;-78
2023/04/04 13:43:25;;;;;;;;;2.00;2.00;;;;;28.14;29.58;102108.06;5033285;28;45401;-78
2023/04/04 13:45:51;;;;;;;;;2.33;1.67;;;;;28.15;28.76;102105.16;5031575;28;45443;-77
2023/04/04 13:48:17;;;;;;;;;1.67;1.67;;;;;28.18;29.11;102101.25;5032380;28;45632;-74
2023/04/04 13:50:46;;;;;;;;;9.00;6.00;;;;;28.14;29.05;102100.72;5033724;28;46305;-80
2023/04/04 13:53:11;;;;;;;;;5.67;3.00;;;;;28.19;29.23;102096.66;5031900;28;45413;-77
2023/04/04 13:55:37;;;;;;;;;2.00;2.00;;;;;28.24;29.61;102106.06;5031064;28;48711;-79
2023/04/04 13:58:02;;;;;;;;;5.00;3.00;;;;;28.31;29.37;102108.97;5031313;28;47592;-81
2023/04/04 14:00:27;;;;;;;;;1.67;1.00;;;;;28.40;29.01;102099.78;5027453;28;46615;-78
2023/04/04 14:02:54;;;;;;;;;4.00;3.00;;;;;28.48;29.56;102090.72;5031045;28;45489;-78
2023/04/04 14:05:20;;;;;;;;;2.00;2.00;;;;;28.51;29.10;102086.81;5034098;28;45419;-74
2023/04/04 14:07:45;;;;;;;;;5.00;3.00;;;;;28.64;29.00;102084.41;5031212;28;45516;-73
2023/04/04 14:10:11;;;;;;;;;1.00;1.00;;;;;28.71;29.43;102072.78;5023774;28;45963;-75
2023/04/04 14:12:37;;;;;;;;;2.00;2.00;;;;;28.83;28.86;102087.81;5033503;28;45502;-76
2023/04/04 14:15:03;;;;;;;;;4.67;3.00;;;;;28.90;29.07;102075.19;5025400;28;45416;-84
2023/04/04 14:17:28;;;;;;;;;3.00;3.00;;;;;29.00;29.46;102080.47;5033674;28;45444;-78
2023/04/04 14:19:54;;;;;;;;;3.00;2.00;;;;;29.05;29.36;102071.75;5028512;28;51712;-86
2023/04/04 14:22:19;;;;;;;;;4.00;3.00;;;;;29.11;29.20;102079.28;5024513;28;45576;-74
2023/04/04 14:24:45;;;;;;;;;7.00;4.00;;;;;29.13;28.84;102077.22;5025376;28;45400;-74
2023/04/04 14:27:10;;;;;;;;;2.00;1.67;;;;;29.14;29.52;102076.16;5033272;28;45423;-75
2023/04/04 14:29:36;;;;;;;;;6.00;2.00;;;;;29.12;29.00;102066.44;5030253;28;46023;-75
2023/04/04 14:32:01;;;;;;;;;3.00;2.33;;;;;29.15;28.61;102063.38;5031299;28;45453;-74
2023/04/04 14:34:26;;;;;;;;;3.00;3.00;;;;;29.19;28.43;102068.28;5027042;28;45780;-74
2023/04/04 14:36:52;;;;;;;;;2.00;2.00;;;;;29.13;28.77;102051.75;5033573;28;46018;-80
2023/04/04 14:39:18;;;;;;;;;2.00;2.00;;;;;29.18;29.19;102066.59;5031948;28;46663;-81
2023/04/04 14:41:44;;;;;;;;;2.33;2.33;;;;;29.20;28.71;102063.69;5024166;28;45485;-77
2023/04/04 14:44:09;;;;;;;;;1.67;1.67;;;;;29.23;29.03;102057.03;5032336;28;45752;-76
2023/04/04 14:46:34;;;;;;;;;3.00;1.00;;;;;29.29;29.18;102053.56;5032614;28;54057;-77
2023/04/04 14:49:02;;;;;;;;;2.00;2.00;;;;;29.28;28.82;102051.88;5048017;28;46620;-77
2023/04/04 14:51:27;;;;;;;;;2.00;2.00;;;;;29.36;29.05;102049.13;5027432;28;45602;-77
2023/04/04 14:53:52;;;;;;;;;2.67;2.67;;;;;29.38;29.52;102046.22;5032863;28;45340;-74
2023/04/04 14:56:18;;;;;;;;;2.00;2.00;;;;;29.41;29.37;102045.84;5022709;28;45734;-74
2023/04/04 14:58:43;;;;;;;;;3.00;3.00;;;;;29.43;29.17;102046.53;5029020;28;46220;-74
2023/04/04 15:01:09;;;;;;;;;1.00;1.00;;;;;29.45;29.29;102042.59;5032430;28;45390;-74
2023/04/04 15:03:34;;;;;;;;;2.00;2.00;;;;;29.49;29.42;102034.88;5022880;28;45467;-74
2023/04/04 15:06:00;;;;;;;;;1.00;1.00;;;;;29.53;28.72;102035.41;5036047;28;45321;-73
2023/04/04 15:08:26;;;;;;;;;2.67;2.67;;;;;29.50;29.11;102030.28;5034210;28;45566;-79
2023/04/04 15:10:51;;;;;;;;;1.67;1.33;;;;;29.52;29.23;102037.28;5035647;28;45466;-76
2023/04/04 15:13:17;;;;;;;;;1.00;1.00;;;;;29.57;28.96;102043.09;5045410;28;45729;-76
2023/04/04 15:15:42;;;;;;;;;3.67;1.00;;;;;29.57;29.50;102031.28;5035119;28;45600;-73
2023/04/04 15:18:08;;;;;;;;;1.67;1.67;;;;;29.60;29.21;102028.19;5036045;28;45460;-75
2023/04/04 15:20:37;;;;;;;;;2.00;2.00;;;;;29.64;29.06;102037.75;5026468;28;61728;-74
2023/04/04 15:23:02;;;;;;;;;0.00;0.00;;;;;29.67;29.35;102031.91;5033753;28;45470;-73
2023/04/04 15:25:28;;;;;;;;;6.00;3.00;;;;;29.63;29.13;102014.13;5029836;28;45387;-73
2023/04/04 15:27:54;;;;;;;;;2.00;2.00;;;;;29.68;29.33;102022.66;5035702;28;45521;-74
2023/04/04 15:30:19;;;;;;;;;1.67;1.67;;;;;29.63;29.28;102018.78;5051455;28;45869;-75
2023/04/04 15:32:44;;;;;;;;;1.67;1.33;;;;;29.68;29.74;102008.13;5035923;28;45781;-74
2023/04/04 15:35:16;;;;;;;;;1.00;1.00;;;;;29.75;29.18;102019.22;5036251;28;45396;-74
